Time;durP1;ratioP1;P1;durP2;ratioP2;P2;SDS_P1;SDS_P2;PMS_P1;PMS_P2;Temp;Humidity;BMP_temperature;BMP_pressure;BME280_temperature;BME280_humidity;BME280_pressure;Samples;Min_cycle;Max_cycle;Signal;HPM_P1;HPM_P2
2023/05/07 00:00:18;;;;;;;5.63;4.10;;;;;;;10.93;100.00;95810.38;1035357;28;20014;-70
2023/05/07 00:00:49;;;;;;;7.53;4.32;;;;;;;10.94;100.00;95813.78;1031693;28;20053;-70
2023/05/07 00:01:20;;;;;;;5.85;4.05;;;;;;;10.94;100.00;95814.56;1027188;28;20266;-70
2023/05/07 00:01:50;;;;;;;5.38;4.43;;;;;;;10.88;100.00;95805.13;1027133;28;20007;-69
2023/05/07 00:02:21;;;;;;;5.93;4.25;;;;;;;10.96;100.00;95814.28;1031005;28;20029;-71
2023/05/07 00:02:52;;;;;;;4.63;4.05;;;;;;;10.93;100.00;95810.38;1027190;28;20018;-71
2023/05/07 00:03:22;;;;;;;6.30;4.05;;;;;;;10.94;100.00;95806.69;1027323;28;20018;-69
2023/05/07 00:03:52;;;;;;;6.63;4.55;;;;;;;10.95;100.00;95810.88;1027326;28;20185;-70
2023/05/07 00:04:23;;;;;;;6.65;4.32;;;;;;;10.95;100.00;95812.72;1022990;28;20031;-70
2023/05/07 00:04:54;;;;;;;7.95;5.00;;;;;;;10.95;100.00;95808.25;1027284;28;20030;-70
2023/05/07 00:05:24;;;;;;;6.35;5.00;;;;;;;10.95;100.00;95808.25;1031275;28;20049;-71
2023/05/07 00:05:55;;;;;;;5.40;4.22;;;;;;;10.92;100.00;95800.91;1031242;28;20519;-69
2023/05/07 00:06:26;;;;;;;5.93;4.63;;;;;;;10.93;100.00;95809.56;1031193;28;20023;-70
2023/05/07 00:06:57;;;;;;;7.10;4.78;;;;;;;10.95;100.00;95810.09;1027214;28;20030;-70
2023/05/07 00:07:27;;;;;;;5.78;4.25;;;;;;;10.90;100.00;95804.84;1023294;29;20262;-69
2023/05/07 00:07:57;;;;;;;7.93;4.95;;;;;;;10.94;100.00;95813.78;1023421;28;20027;-70
2023/05/07 00:08:28;;;;;;;5.00;4.50;;;;;;;10.92;100.00;95814.03;1023469;28;20078;-70
2023/05/07 00:08:59;;;;;;;7.57;4.50;;;;;;;10.92;100.00;95814.03;1026625;28;20019;-69
2023/05/07 00:09:30;;;;;;;4.53;4.10;;;;;;;10.92;100.00;95819.28;1027144;28;20108;-70
2023/05/07 00:10:00;;;;;;;5.15;4.35;;;;;;;10.92;100.00;95819.28;1027499;28;20834;-69
2023/05/07 00:10:31;;;;;;;7.57;4.30;;;;;;;10.92;100.00;95816.66;1027170;28;20027;-70
2023/05/07 00:11:01;;;;;;;5.70;4.45;;;;;;;10.92;100.00;95811.41;1023013;28;20053;-70
2023/05/07 00:11:32;;;;;;;5.00;4.25;;;;;;;10.87;100.00;95811.44;1027297;28;20086;-70
2023/05/07 00:12:02;;;;;;;6.57;3.63;;;;;;;10.90;100.00;95813.53;1027231;28;20113;-70
2023/05/07 00:12:35;;;;;;;7.00;4.07;;;;;;;10.90;100.00;95810.09;1030898;28;20018;-71
2023/05/07 00:13:06;;;;;;;6.10;4.05;;;;;;;10.90;100.00;95817.97;1031240;28;20018;-70
2023/05/07 00:13:36;;;;;;;6.13;4.30;;;;;;;10.89;100.00;95804.06;1027582;28;20266;-69
2023/05/07 00:14:07;;;;;;;6.10;4.00;;;;;;;10.89;100.00;95809.31;1031004;28;20022;-71
2023/05/07 00:14:37;;;;;;;7.45;4.30;;;;;;;10.89;100.00;95809.31;1027434;28;20671;-70
2023/05/07 00:15:08;;;;;;;7.95;4.47;;;;;;;10.89;100.00;95806.69;1023075;28;20647;-70
2023/05/07 00:15:38;;;;;;;5.75;3.90;;;;;;;10.89;100.00;95809.31;1027118;28;20052;-70
2023/05/07 00:16:09;;;;;;;4.95;3.88;;;;;;;10.85;100.00;95803.00;1026915;28;20049;-70
2023/05/07 00:16:39;;;;;;;6.93;4.40;;;;;;;10.88;100.00;95807.75;1023340;28;20632;-70
2023/05/07 00:17:10;;;;;;;5.00;4.10;;;;;;;10.87;100.00;95800.13;1026979;28;20077;-70
2023/05/07 00:17:40;;;;;;;7.22;3.92;;;;;;;10.87;100.00;95805.38;1023193;28;20022;-70
2023/05/07 00:18:11;;;;;;;6.40;4.85;;;;;;;10.87;100.00;95805.38;1031141;28;20337;-71
2023/05/07 00:18:41;;;;;;;6.47;4.40;;;;;;;10.87;100.00;95808.00;1026703;28;20015;-70
2023/05/07 00:19:11;;;;;;;5.30;4.18;;;;;;;10.84;100.00;95809.31;1019154;29;20019;-70
2023/05/07 00:19:42;;;;;;;6.18;4.07;;;;;;;10.84;100.00;95807.47;1019053;29;20715;-70
2023/05/07 00:20:12;;;;;;;4.90;3.70;;;;;;;10.83;100.00;95808.53;1019278;29;20601;-69
2023/05/07 00:20:43;;;;;;;5.90;4.10;;;;;;;10.84;100.00;95806.69;1023219;28;20094;-70
2023/05/07 00:21:13;;;;;;;6.72;3.95;;;;;;;10.83;100.00;95805.09;1031187;28;20026;-70
2023/05/07 00:21:44;;;;;;;5.97;4.68;;;;;;;10.82;100.00;95804.31;1030997;28;20086;-70
2023/05/07 00:22:15;;;;;;;6.72;4.45;;;;;;;10.79;100.00;95802.22;1030802;28;20623;-70
2023/05/07 00:22:45;;;;;;;6.18;4.28;;;;;;;10.84;100.00;95802.22;1025917;28;20019;-70
2023/05/07 00:23:16;;;;;;;6.95;4.25;;;;;;;10.81;100.00;95797.50;1026272;28;20587;-70
2023/05/07 00:23:46;;;;;;;6.82;4.28;;;;;;;10.85;100.00;95805.63;1034600;28;20030;-70
2023/05/07 00:24:17;;;;;;;5.13;4.30;;;;;;;10.84;100.00;95796.19;1030714;28;20435;-71
2023/05/07 00:24:47;;;;;;;6.43;4.10;;;;;;;10.83;100.00;95797.22;1030286;28;20030;-70
2023/05/07 00:25:19;;;;;;;6.25;4.28;;;;;;;10.82;100.00;95793.81;1030710;28;20022;-70
2023/05/07 00:25:50;;;;;;;5.25;3.85;;;;;;;10.82;100.00;95793.03;1026381;28;20019;-71
2023/05/07 00:26:20;;;;;;;5.80;4.15;;;;;;;10.81;100.00;95796.72;1020200;28;20348;-70
2023/05/07 00:26:52;;;;;;;7.88;4.35;;;;;;;10.80;100.00;95793.31;1022618;28;20024;-70
2023/05/07 00:27:22;;;;;;;11.80;4.35;;;;;;;10.81;100.00;95799.34;1022464;28;20428;-70
2023/05/07 00:27:53;;;;;;;4.75;3.80;;;;;;;10.78;100.00;95794.63;1023193;28;20247;-70
2023/05/07 00:28:23;;;;;;;7.03;3.97;;;;;;;10.78;100.00;95792.78;1030595;28;20711;-70
2023/05/07 00:28:54;;;;;;;4.57;3.80;;;;;;;10.77;100.00;95785.19;1029848;28;20034;-70
2023/05/07 00:29:24;;;;;;;5.32;4.00;;;;;;;10.74;100.00;95790.94;1030596;28;20705;-69
2023/05/07 00:29:55;;;;;;;7.10;5.00;;;;;;;10.75;100.00;95795.13;1026367;28;20011;-70
2023/05/07 00:30:26;;;;;;;6.60;4.60;;;;;;;10.74;100.00;95796.19;1026387;28;20469;-70
2023/05/07 00:30:56;;;;;;;6.15;4.25;;;;;;;10.68;100.00;95784.09;1026753;28;20022;-70
2023/05/07 00:31:26;;;;;;;5.72;4.32;;;;;;;10.71;100.00;95796.72;1026458;28;20031;-70
2023/05/07 00:31:57;;;;;;;8.70;3.95;;;;;;;10.70;100.00;95792.53;1030263;28;20022;-71
2023/05/07 00:32:27;;;;;;;5.20;4.10;;;;;;;10.70;100.00;95795.16;1030045;28;20397;-70
2023/05/07 00:32:58;;;;;;;4.75;3.80;;;;;;;10.68;100.00;95797.22;1030521;28;20010;-69
2023/05/07 00:33:28;;;;;;;4.95;3.97;;;;;;;10.68;100.00;95797.22;1030654;28;20030;-71
2023/05/07 00:33:59;;;;;;;10.15;4.15;;;;;;;10.67;100.00;95793.81;1026324;28;20068;-70
2023/05/07 00:34:29;;;;;;;10.80;3.92;;;;;;;10.66;100.00;95796.69;1030467;28;20014;-70
2023/05/07 00:35:00;;;;;;;6.35;4.50;;;;;;;10.66;100.00;95797.47;1030447;28;20018;-70
2023/05/07 00:35:30;;;;;;;8.88;5.03;;;;;;;10.61;100.00;95787.78;1034669;28;20018;-70
2023/05/07 00:36:01;;;;;;;8.73;3.92;;;;;;;10.66;100.00;95800.09;1034562;28;20700;-71
2023/05/07 00:36:32;;;;;;;6.68;4.00;;;;;;;10.65;100.00;95797.75;1028885;28;20141;-71
2023/05/07 00:37:02;;;;;;;9.02;4.35;;;;;;;10.64;100.00;95796.19;1022340;29;20746;-70
2023/05/07 00:37:33;;;;;;;6.38;3.90;;;;;;;10.65;100.00;95795.91;1022372;29;20630;-72
2023/05/07 00:38:03;;;;;;;7.78;4.32;;;;;;;10.62;100.00;95793.81;1018763;28;20075;-71
2023/05/07 00:38:34;;;;;;;4.47;3.83;;;;;;;10.62;100.00;95799.84;1019120;29;20026;-69
2023/05/07 00:39:04;;;;;;;5.53;3.85;;;;;;;10.63;100.00;95795.41;1026490;28;20026;-71
2023/05/07 00:39:35;;;;;;;4.97;4.10;;;;;;;10.58;100.00;95796.16;1030575;28;20468;-70
2023/05/07 00:40:07;;;;;;;4.35;3.72;;;;;;;10.57;100.00;95793.81;1026496;28;20058;-70
2023/05/07 00:40:37;;;;;;;4.65;4.07;;;;;;;10.60;100.00;95806.41;1026798;28;20037;-71
2023/05/07 00:41:08;;;;;;;6.15;3.97;;;;;;;10.59;100.00;95800.34;1030556;28;20655;-71
2023/05/07 00:41:38;;;;;;;7.03;4.43;;;;;;;10.59;100.00;95800.34;1030710;28;20026;-70
2023/05/07 00:42:09;;;;;;;5.80;4.32;;;;;;;10.59;100.00;95802.19;1034620;28;20018;-71
2023/05/07 00:42:40;;;;;;;6.18;4.40;;;;;;;10.56;100.00;95797.47;1038859;28;20010;-70
2023/05/07 00:43:10;;;;;;;7.68;4.57;;;;;;;10.59;100.00;95805.59;1034472;28;20018;-69
2023/05/07 00:43:41;;;;;;;12.25;4.70;;;;;;;10.58;100.00;95798.78;1030383;28;20023;-70
2023/05/07 00:44:11;;;;;;;4.93;3.85;;;;;;;10.59;100.00;95807.44;1026405;28;20039;-70
2023/05/07 00:44:41;;;;;;;5.05;4.13;;;;;;;10.56;100.00;95800.91;1026433;28;20019;-70
2023/05/07 00:45:15;;;;;;;8.25;4.38;;;;;;;10.52;100.00;95789.34;1030291;28;20030;-71
2023/05/07 00:45:46;;;;;;;5.50;4.07;;;;;;;10.53;100.00;95790.94;1026880;28;20010;-70
2023/05/07 00:46:16;;;;;;;5.35;4.13;;;;;;;10.59;100.00;95802.19;1026288;28;20309;-70
2023/05/07 00:46:49;;;;;;;6.68;4.15;;;;;;;10.53;100.00;95796.16;1026389;28;20464;-70
2023/05/07 00:47:20;;;;;;;5.97;3.78;;;;;;;10.55;100.00;95799.31;1026239;28;20077;-71
2023/05/07 00:47:50;;;;;;;8.40;4.50;;;;;;;10.59;100.00;95810.06;1026301;28;20270;-70
2023/05/07 00:48:21;;;;;;;6.32;4.25;;;;;;;10.57;100.00;95802.47;1026518;28;20015;-70
2023/05/07 00:48:51;;;;;;;7.43;3.90;;;;;;;10.59;100.00;95805.59;1025524;28;20513;-72
2023/05/07 00:49:22;;;;;;;10.43;4.90;;;;;;;10.60;100.00;95807.19;1022332;29;20022;-70
2023/05/07 00:49:52;;;;;;;5.05;3.25;;;;;;;10.59;100.00;95805.59;1022512;29;20007;-70
2023/05/07 00:50:23;;;;;;;6.07;3.97;;;;;;;10.59;100.00;95807.44;1014601;29;20146;-69
2023/05/07 00:50:53;;;;;;;8.43;3.47;;;;;;;10.59;100.00;95805.59;1021887;28;20019;-70
2023/05/07 00:51:27;;;;;;;6.47;3.80;;;;;;;10.58;100.00;95804.03;1022563;28;20026;-71
2023/05/07 00:51:57;;;;;;;5.25;3.55;;;;;;;10.58;100.00;95804.03;1019444;28;20155;-71
2023/05/07 00:52:28;;;;;;;4.63;3.58;;;;;;;10.55;100.00;95801.94;1022035;29;20350;-71
2023/05/07 00:52:58;;;;;;;4.43;3.55;;;;;;;10.54;100.00;95802.97;1022358;29;20011;-71
2023/05/07 00:53:29;;;;;;;6.07;3.90;;;;;;;10.57;100.00;95804.31;1022496;29;20038;-71
2023/05/07 00:54:00;;;;;;;4.28;3.47;;;;;;;10.58;100.00;95809.28;1018342;29;20031;-71
2023/05/07 00:54:31;;;;;;;5.40;3.53;;;;;;;10.58;100.00;95804.03;1022488;29;20019;-70
2023/05/07 00:55:05;;;;;;;4.50;3.53;;;;;;;10.56;100.00;95806.16;1022207;29;20258;-71
2023/05/07 00:55:36;;;;;;;10.35;4.18;;;;;;;10.58;100.00;95808.50;1023032;28;20619;-70
2023/05/07 00:56:07;;;;;;;5.35;3.63;;;;;;;10.59;100.00;95810.84;1022292;29;20325;-70
2023/05/07 00:56:38;;;;;;;5.18;3.42;;;;;;;10.58;100.00;95804.03;1016103;29;20849;-71
2023/05/07 00:57:10;;;;;;;5.53;3.67;;;;;;;10.55;100.00;95799.31;1022632;28;20015;-71
2023/05/07 00:57:41;;;;;;;3.63;3.30;;;;;;;10.59;100.00;95800.34;1019422;28;21000;-71
2023/05/07 00:58:12;;;;;;;4.20;3.33;;;;;;;10.56;100.00;95800.91;1026853;28;20333;-71
2023/05/07 00:58:42;;;;;;;4.88;3.33;;;;;;;10.59;100.00;95804.81;1021796;29;20015;-71
2023/05/07 00:59:13;;;;;;;3.92;3.35;;;;;;;10.59;100.00;95802.97;1025885;28;20034;-71
2023/05/07 00:59:43;;;;;;;4.80;3.50;;;;;;;10.55;100.00;95795.91;1024972;28;20102;-71
2023/05/07 01:00:14;;;;;;;4.63;3.58;;;;;;;10.59;100.00;95799.56;1030265;28;20018;-70
2023/05/07 01:00:44;;;;;;;3.15;2.78;;;;;;;10.59;100.00;95795.09;1022525;28;20029;-68
2023/05/07 01:01:17;;;;;;;4.30;3.60;;;;;;;10.59;100.00;95796.94;1021603;28;20045;-70
2023/05/07 01:01:48;;;;;;;5.97;3.50;;;;;;;10.59;100.00;95805.59;1026017;28;20015;-71
2023/05/07 01:02:18;;;;;;;5.38;3.40;;;;;;;10.58;100.00;95798.78;1026596;28;20273;-70
2023/05/07 01:02:49;;;;;;;6.10;3.90;;;;;;;10.58;100.00;95796.16;1022324;29;20098;-70
2023/05/07 01:03:20;;;;;;;7.28;3.63;;;;;;;10.57;100.00;95791.97;1018880;29;20051;-71
2023/05/07 01:03:50;;;;;;;3.88;3.25;;;;;;;10.57;100.00;95791.19;1022564;29;20057;-70
2023/05/07 01:04:21;;;;;;;5.47;3.70;;;;;;;10.57;100.00;95791.97;1022268;29;20262;-71
2023/05/07 01:04:51;;;;;;;4.25;3.70;;;;;;;10.54;100.00;95787.25;1022569;29;20527;-71
2023/05/07 01:05:22;;;;;;;4.70;3.75;;;;;;;10.56;100.00;95790.41;1026323;28;20015;-71
2023/05/07 01:05:53;;;;;;;4.35;3.67;;;;;;;10.55;100.00;95786.19;1019657;28;20015;-71
2023/05/07 01:06:24;;;;;;;3.65;3.28;;;;;;;10.57;100.00;95791.97;1026500;28;20014;-70
2023/05/07 01:06:56;;;;;;;5.70;3.85;;;;;;;10.56;100.00;95787.78;1022796;28;20015;-70
2023/05/07 01:07:26;;;;;;;4.65;3.97;;;;;;;10.53;100.00;95784.88;1022439;28;20310;-71
2023/05/07 01:07:56;;;;;;;3.92;3.42;;;;;;;10.52;100.00;95784.09;1022668;28;20263;-70
2023/05/07 01:08:29;;;;;;;5.25;3.55;;;;;;;10.54;100.00;95787.25;1022253;29;20019;-71
2023/05/07 01:08:59;;;;;;;5.63;3.70;;;;;;;10.54;100.00;95787.25;1017889;29;20023;-71
2023/05/07 01:09:30;;;;;;;4.47;3.97;;;;;;;10.50;100.00;95780.16;1018380;29;20272;-70
2023/05/07 01:10:00;;;;;;;7.78;3.50;;;;;;;10.51;100.00;95777.28;1022727;28;20019;-70
2023/05/07 01:10:31;;;;;;;6.50;3.40;;;;;;;10.50;100.00;95782.78;1026677;28;20015;-71
2023/05/07 01:11:01;;;;;;;6.78;3.97;;;;;;;10.51;100.00;95779.09;1018293;29;20019;-70
2023/05/07 01:11:32;;;;;;;4.47;3.03;;;;;;;10.50;100.00;95783.56;1022117;29;20101;-71
2023/05/07 01:12:03;;;;;;;5.75;3.85;;;;;;;10.54;100.00;95787.25;1030073;28;20026;-71
2023/05/07 01:12:34;;;;;;;3.95;3.55;;;;;;;10.54;100.00;95789.09;1022150;29;20106;-70
2023/05/07 01:13:04;;;;;;;5.63;3.60;;;;;;;10.51;100.00;95782.50;1022499;29;20473;-70
2023/05/07 01:13:35;;;;;;;4.35;3.63;;;;;;;10.49;100.00;95776.72;1022100;29;20251;-70
2023/05/07 01:14:05;;;;;;;5.07;3.88;;;;;;;10.51;100.00;95785.13;1022374;29;20094;-70
2023/05/07 01:14:36;;;;;;;4.50;3.75;;;;;;;10.50;100.00;95788.03;1022417;29;20011;-72
2023/05/07 01:15:08;;;;;;;3.78;3.35;;;;;;;10.46;100.00;95776.47;1022236;28;20027;-69
2023/05/07 01:15:38;;;;;;;7.18;3.63;;;;;;;10.47;100.00;95781.47;1026550;28;20435;-71
2023/05/07 01:16:09;;;;;;;4.47;3.60;;;;;;;10.48;100.00;95783.03;1026510;28;20282;-70
2023/05/07 01:16:40;;;;;;;5.25;3.35;;;;;;;10.48;100.00;95783.03;1026446;28;20019;-71
2023/05/07 01:17:10;;;;;;;5.15;3.55;;;;;;;10.48;100.00;95788.28;1026638;28;20007;-70
2023/05/07 01:17:41;;;;;;;7.47;3.65;;;;;;;10.45;100.00;95777.53;1026448;28;20259;-70
2023/05/07 01:18:12;;;;;;;5.13;3.75;;;;;;;10.47;100.00;95785.94;1018319;29;20075;-70
2023/05/07 01:18:42;;;;;;;6.13;3.30;;;;;;;10.48;100.00;95783.03;1021779;29;20020;-71
2023/05/07 01:19:14;;;;;;;5.22;3.80;;;;;;;10.41;100.00;95766.75;1026244;28;20532;-70
2023/05/07 01:19:44;;;;;;;6.43;3.60;;;;;;;10.45;100.00;95783.56;1026375;28;20007;-70
2023/05/07 01:20:15;;;;;;;3.97;3.55;;;;;;;10.48;100.00;95787.50;1026342;28;20292;-70
2023/05/07 01:20:46;;;;;;;5.70;3.75;;;;;;;10.46;100.00;95785.16;1026449;28;20532;-70
2023/05/07 01:21:16;;;;;;;4.22;3.35;;;;;;;10.46;100.00;95779.91;1023763;28;20250;-71
2023/05/07 01:21:47;;;;;;;10.55;4.00;;;;;;;10.42;100.00;95776.19;1022131;28;20038;-71
2023/05/07 01:22:31;;;;;;;7.13;3.70;;;;;;;10.46;100.00;95785.16;1022020;28;20718;-70
2023/05/07 01:23:02;;;;;;;4.43;3.75;;;;;;;10.41;100.00;95773.84;1024239;28;20263;-71
2023/05/07 01:23:32;;;;;;;3.97;3.45;;;;;;;10.40;100.00;95770.44;1026264;28;20803;-70
2023/05/07 01:24:04;;;;;;;5.53;3.85;;;;;;;10.44;100.00;95771.50;1022228;29;20027;-70
2023/05/07 01:24:35;;;;;;;8.27;3.42;;;;;;;10.44;100.00;95776.75;1022183;29;20122;-72
2023/05/07 01:25:08;;;;;;;5.15;3.40;;;;;;;10.31;100.00;95754.41;1022182;29;20263;-71
2023/05/07 01:25:39;;;;;;;5.53;3.70;;;;;;;10.42;100.00;95773.56;1022425;29;20028;-70
2023/05/07 01:26:09;;;;;;;4.47;3.90;;;;;;;10.40;100.00;95775.69;1025954;28;20258;-71
2023/05/07 01:26:40;;;;;;;5.03;3.33;;;;;;;10.43;100.00;95775.16;1023325;28;20062;-70
2023/05/07 01:27:11;;;;;;;5.15;3.47;;;;;;;10.41;100.00;95769.38;1026289;28;20046;-71
2023/05/07 01:27:42;;;;;;;4.55;3.70;;;;;;;10.42;100.00;95772.78;1022381;29;20752;-71
2023/05/07 01:28:12;;;;;;;5.18;3.70;;;;;;;10.37;100.00;95768.34;1022301;28;20019;-72
2023/05/07 01:28:42;;;;;;;8.32;3.70;;;;;;;10.41;100.00;95766.75;1026074;28;20774;-71
2023/05/07 01:29:13;;;;;;;4.65;3.92;;;;;;;10.41;100.00;95769.38;1034330;28;20017;-70
2023/05/07 01:29:43;;;;;;;7.32;3.90;;;;;;;10.36;100.00;95764.94;1034363;28;20061;-70
2023/05/07 01:30:14;;;;;;;5.40;3.42;;;;;;;10.41;100.00;95777.25;1030152;28;20065;-70
2023/05/07 01:30:51;;;;;;;4.68;3.65;;;;;;;10.41;100.00;95776.47;1026408;28;20034;-71
2023/05/07 01:31:21;;;;;;;4.25;3.70;;;;;;;10.41;100.00;95771.22;1023037;28;20025;-71
2023/05/07 01:31:52;;;;;;;5.15;3.85;;;;;;;10.35;100.00;95767.78;1026016;28;20940;-70
2023/05/07 01:32:47;;;;;;;6.35;3.60;;;;;;;10.39;100.00;95774.09;1021876;28;20016;-70
2023/05/07 01:33:21;;;;;;;5.22;3.22;;;;;;;10.34;100.00;95759.16;1024581;28;20034;-71
2023/05/07 01:33:51;;;;;;;5.22;3.50;;;;;;;10.34;100.00;95760.97;1030336;28;20269;-71
2023/05/07 01:34:22;;;;;;;4.43;3.40;;;;;;;10.37;100.00;95768.34;1017770;29;20264;-70
2023/05/07 01:34:52;;;;;;;3.95;3.47;;;;;;;10.38;100.00;95773.31;1022159;28;20012;-71
2023/05/07 01:35:27;;;;;;;4.78;3.67;;;;;;;10.37;100.00;95765.72;1018281;29;20016;-71
2023/05/07 01:35:58;;;;;;;4.80;4.03;;;;;;;10.31;100.00;95762.28;1018061;29;20028;-71
2023/05/07 01:36:30;;;;;;;4.65;3.55;;;;;;;10.35;100.00;95765.19;1018092;29;20333;-70
2023/05/07 01:37:00;;;;;;;5.20;4.03;;;;;;;10.31;100.00;95761.50;1022161;29;20251;-70
2023/05/07 01:37:30;;;;;;;6.30;3.67;;;;;;;10.35;100.00;95768.56;1022216;29;20275;-70
2023/05/07 01:38:04;;;;;;;6.30;3.88;;;;;;;10.36;100.00;95769.38;1026157;28;20023;-71
2023/05/07 01:38:36;;;;;;;5.25;3.72;;;;;;;10.34;100.00;95771.47;1021518;29;20086;-70
2023/05/07 01:39:06;;;;;;;5.80;3.70;;;;;;;10.33;100.00;95770.69;1026178;28;20261;-71
2023/05/07 01:39:37;;;;;;;4.50;3.30;;;;;;;10.32;100.00;95768.31;1022176;29;20350;-71
2023/05/07 01:40:08;;;;;;;8.05;3.80;;;;;;;10.32;100.00;95774.34;1020993;29;20063;-70
2023/05/07 01:40:38;;;;;;;5.30;3.92;;;;;;;10.32;100.00;95773.56;1025874;28;20268;-70
2023/05/07 01:41:09;;;;;;;4.78;3.40;;;;;;;10.28;100.00;95768.03;1026043;28;20747;-71
2023/05/07 01:41:39;;;;;;;4.90;3.83;;;;;;;10.28;100.00;95769.88;1022199;28;20020;-71
2023/05/07 01:42:10;;;;;;;4.68;3.88;;;;;;;10.32;100.00;95768.31;1017726;29;20015;-70
2023/05/07 01:42:41;;;;;;;5.90;4.00;;;;;;;10.31;100.00;95782.47;1018262;29;20481;-70
2023/05/07 01:43:12;;;;;;;3.97;3.60;;;;;;;10.31;100.00;95780.66;1018265;29;20080;-70
2023/05/07 01:43:42;;;;;;;4.47;3.78;;;;;;;10.30;100.00;95780.91;1018394;29;20898;-71
2023/05/07 01:44:13;;;;;;;6.35;3.72;;;;;;;10.32;100.00;95787.47;1018238;29;20521;-71
2023/05/07 01:44:43;;;;;;;5.22;3.72;;;;;;;10.32;100.00;95784.84;1018450;29;20066;-71
2023/05/07 01:45:13;;;;;;;4.18;3.72;;;;;;;10.31;100.00;95785.09;1014049;29;20016;-71
2023/05/07 01:45:44;;;;;;;4.45;3.53;;;;;;;10.30;100.00;95780.91;1018311;29;20035;-71
2023/05/07 01:46:14;;;;;;;5.95;3.40;;;;;;;10.27;100.00;95784.06;1022170;29;20015;-71
2023/05/07 01:46:45;;;;;;;5.03;3.55;;;;;;;10.32;100.00;95784.06;1026177;28;20015;-71
2023/05/07 01:47:15;;;;;;;6.53;3.50;;;;;;;10.35;100.00;95788.78;1023772;28;20668;-70
2023/05/07 01:47:46;;;;;;;5.20;3.72;;;;;;;10.32;100.00;95776.97;1026204;28;20030;-70
2023/05/07 01:48:16;;;;;;;6.80;3.33;;;;;;;10.31;100.00;95782.47;1014208;29;20084;-70
2023/05/07 01:48:47;;;;;;;4.40;3.53;;;;;;;10.34;100.00;95785.38;1017917;29;20022;-72
2023/05/07 01:49:17;;;;;;;5.00;3.30;;;;;;;10.35;100.00;95788.78;1018088;29;20480;-70
2023/05/07 01:49:47;;;;;;;5.93;4.05;;;;;;;10.33;100.00;95790.88;1018243;29;20789;-70
2023/05/07 01:50:18;;;;;;;4.65;3.53;;;;;;;10.34;100.00;95784.59;1022202;29;20024;-71
2023/05/07 01:50:49;;;;;;;7.25;3.65;;;;;;;10.35;100.00;95788.78;1025798;28;20011;-70
2023/05/07 01:51:21;;;;;;;5.05;3.92;;;;;;;10.35;100.00;95794.03;1022157;28;20019;-70
2023/05/07 01:51:51;;;;;;;4.10;3.60;;;;;;;10.34;100.00;95779.34;1022554;28;20055;-71
2023/05/07 01:52:22;;;;;;;4.93;3.47;;;;;;;10.29;100.00;95785.34;1030098;28;20655;-70
2023/05/07 01:52:52;;;;;;;4.28;3.55;;;;;;;10.32;100.00;95786.69;1026059;28;20135;-70
2023/05/07 01:53:22;;;;;;;5.05;3.70;;;;;;;10.33;100.00;95785.66;1022044;28;20015;-70
2023/05/07 01:53:53;;;;;;;5.05;3.97;;;;;;;10.31;100.00;95782.47;1018126;29;20046;-70
2023/05/07 01:54:30;;;;;;;5.38;3.95;;;;;;;10.32;100.00;95782.22;1026281;28;20015;-70
2023/05/07 01:55:00;;;;;;;4.32;3.92;;;;;;;10.33;100.00;95789.06;1022270;29;20039;-70
2023/05/07 01:55:31;;;;;;;4.72;3.58;;;;;;;10.34;100.00;95787.22;1026066;28;20266;-70
2023/05/07 01:56:01;;;;;;;5.82;4.00;;;;;;;10.30;100.00;95778.28;1026077;28;20019;-71
2023/05/07 01:56:32;;;;;;;5.55;3.55;;;;;;;10.32;100.00;95790.09;1026647;28;20062;-71
2023/05/07 01:57:02;;;;;;;6.35;3.42;;;;;;;10.34;100.00;95789.84;1026303;28;20041;-70
2023/05/07 01:57:33;;;;;;;5.57;4.03;;;;;;;10.33;100.00;95791.69;1026059;28;20086;-70
2023/05/07 01:58:04;;;;;;;4.07;3.67;;;;;;;10.27;100.00;95786.69;1030290;28;20432;-70
2023/05/07 01:58:34;;;;;;;8.68;4.18;;;;;;;10.30;100.00;95794.81;1025642;28;20033;-69
2023/05/07 01:59:05;;;;;;;4.65;3.78;;;;;;;10.32;100.00;95795.31;1017972;29;20770;-70
2023/05/07 01:59:35;;;;;;;8.85;4.00;;;;;;;10.31;100.00;95791.13;1018008;29;20071;-70
2023/05/07 02:00:06;;;;;;;4.15;3.60;;;;;;;10.33;100.00;95796.13;1018384;29;20022;-71
2023/05/07 02:00:36;;;;;;;3.78;3.17;;;;;;;10.33;100.00;95793.50;1022334;28;20033;-70
2023/05/07 02:01:07;;;;;;;6.03;3.72;;;;;;;10.32;100.00;95792.69;1026077;28;20265;-70
2023/05/07 02:01:37;;;;;;;6.25;3.72;;;;;;;10.32;100.00;95794.53;1030168;28;20018;-70
2023/05/07 02:02:08;;;;;;;7.43;3.70;;;;;;;10.28;100.00;95788.25;1030046;28;20114;-69
2023/05/07 02:02:38;;;;;;;7.25;4.03;;;;;;;10.32;100.00;95794.53;1021903;29;20019;-71
2023/05/07 02:03:09;;;;;;;5.72;3.85;;;;;;;10.31;100.00;95793.75;1022182;29;20028;-70
2023/05/07 02:03:39;;;;;;;4.55;3.47;;;;;;;10.31;100.00;95787.72;1022162;28;20895;-71
2023/05/07 02:04:10;;;;;;;4.68;3.70;;;;;;;10.31;100.00;95795.59;1022284;28;20026;-70
2023/05/07 02:04:40;;;;;;;4.80;3.70;;;;;;;10.30;100.00;95797.44;1030275;28;20062;-70
2023/05/07 02:05:11;;;;;;;9.25;3.80;;;;;;;10.31;100.00;95795.59;1022101;29;20409;-70
2023/05/07 02:05:41;;;;;;;7.40;3.38;;;;;;;10.30;100.00;95796.66;1022054;28;20434;-70
2023/05/07 02:06:11;;;;;;;7.75;3.70;;;;;;;10.28;100.00;95799.53;1022167;29;20019;-70
2023/05/07 02:06:42;;;;;;;6.85;3.40;;;;;;;10.26;100.00;95793.75;1022412;28;20030;-70
2023/05/07 02:07:12;;;;;;;4.53;3.50;;;;;;;10.27;100.00;95791.91;1030163;28;20878;-71
2023/05/07 02:07:43;;;;;;;4.30;3.53;;;;;;;10.29;100.00;95795.06;1028075;28;20389;-70
2023/05/07 02:08:13;;;;;;;4.15;3.13;;;;;;;10.29;100.00;95801.09;1034116;28;20128;-71
2023/05/07 02:08:44;;;;;;;4.78;3.97;;;;;;;10.30;100.00;95799.28;1025470;28;20023;-71
2023/05/07 02:09:15;;;;;;;4.90;3.53;;;;;;;10.27;100.00;95792.72;1021987;28;20377;-69
2023/05/07 02:09:45;;;;;;;7.82;3.80;;;;;;;10.26;100.00;95787.69;1025985;28;20023;-71
2023/05/07 02:10:16;;;;;;;4.65;3.60;;;;;;;10.29;100.00;95797.69;1026170;28;20027;-70
2023/05/07 02:10:46;;;;;;;6.90;3.58;;;;;;;10.30;100.00;95801.91;1030192;28;20015;-70
2023/05/07 02:11:16;;;;;;;5.90;3.88;;;;;;;10.27;100.00;95797.16;1021987;28;20031;-71
2023/05/07 02:11:47;;;;;;;6.32;3.50;;;;;;;10.31;100.00;95799.00;1022039;29;20047;-71
2023/05/07 02:12:17;;;;;;;5.30;3.65;;;;;;;10.31;100.00;95798.22;1017732;29;20016;-70
2023/05/07 02:12:48;;;;;;;5.68;3.60;;;;;;;10.32;100.00;95791.91;1021902;28;20067;-71
2023/05/07 02:13:19;;;;;;;4.95;4.22;;;;;;;10.30;100.00;95788.78;1026235;28;20026;-71
2023/05/07 02:13:50;;;;;;;6.00;4.07;;;;;;;10.30;100.00;95796.66;1026282;28;20105;-70
2023/05/07 02:14:20;;;;;;;4.93;3.70;;;;;;;10.27;100.00;95784.84;1030004;28;20705;-71
2023/05/07 02:14:51;;;;;;;6.82;3.70;;;;;;;10.27;100.00;95790.09;1026320;28;20489;-71
2023/05/07 02:15:21;;;;;;;4.25;3.85;;;;;;;10.27;100.00;95792.72;1026113;28;20452;-71
2023/05/07 02:15:51;;;;;;;4.15;3.63;;;;;;;10.27;100.00;95792.72;1022120;29;20031;-71
2023/05/07 02:16:23;;;;;;;5.82;3.70;;;;;;;10.27;100.00;95791.91;1017849;28;20015;-71
2023/05/07 02:16:53;;;;;;;4.78;3.78;;;;;;;10.26;100.00;95792.94;1022101;28;20813;-70
2023/05/07 02:17:25;;;;;;;5.53;3.30;;;;;;;10.21;100.00;95782.44;1026223;28;20329;-71
2023/05/07 02:18:07;;;;;;;5.00;3.55;;;;;;;10.25;100.00;95793.97;1025914;28;20540;-70
2023/05/07 02:18:38;;;;;;;4.57;3.65;;;;;;;10.26;100.00;95790.31;1025453;28;20262;-71
2023/05/07 02:19:08;;;;;;;5.10;3.83;;;;;;;10.24;100.00;95789.78;1025916;28;20262;-71
2023/05/07 02:19:39;;;;;;;5.97;3.78;;;;;;;10.26;100.00;95792.94;1025315;28;20019;-70
2023/05/07 02:20:13;;;;;;;5.65;4.10;;;;;;;10.25;100.00;95791.34;1026014;28;20019;-71
2023/05/07 02:20:43;;;;;;;5.25;3.50;;;;;;;10.24;100.00;95795.81;1025964;28;20934;-70
2023/05/07 02:21:14;;;;;;;5.70;3.65;;;;;;;10.24;100.00;95793.19;1022667;28;20279;-71
2023/05/07 02:21:44;;;;;;;4.10;3.70;;;;;;;10.24;100.00;95793.19;1022546;28;20377;-71
2023/05/07 02:22:15;;;;;;;6.38;3.85;;;;;;;10.24;100.00;95787.16;1026081;28;20022;-70
2023/05/07 02:22:45;;;;;;;5.93;4.00;;;;;;;10.24;100.00;95789.78;1027185;28;20011;-69
2023/05/07 02:23:16;;;;;;;5.78;3.83;;;;;;;10.13;100.00;95771.41;1030809;28;20022;-70
2023/05/07 02:23:46;;;;;;;4.93;3.83;;;;;;;10.21;100.00;95788.47;1029188;28;20030;-71